Time;durP1;ratioP1;P1;durP2;ratioP2;P2;SDS_P1;SDS_P2;PMS_P1;PMS_P2;Temp;Humidity;BMP_temperature;BMP_pressure;BME280_temperature;BME280_humidity;BME280_pressure;Samples;Min_cycle;Max_cycle;Signal;HPM_P1;HPM_P2
2022/04/10 00:00:19;;;;;;;4.70;3.03;;;3.00;99.90;;;;;;4975726;28;20199;-88
2022/04/10 00:02:45;;;;;;;4.00;3.03;;;3.00;99.90;;;;;;4998006;28;20202;-88
2022/04/10 00:05:27;;;;;;;3.97;3.40;;;3.10;99.90;;;;;;4998019;28;20179;-88
2022/04/10 00:07:53;;;;;;;3.40;3.10;;;3.10;99.90;;;;;;4982338;28;20226;-88
2022/04/10 00:10:19;;;;;;;3.93;3.00;;;3.10;99.90;;;;;;4978154;28;20191;-88
2022/04/10 00:12:45;;;;;;;4.43;2.83;;;3.10;99.90;;;;;;4962419;28;20211;-88
2022/04/10 00:15:11;;;;;;;4.50;3.10;;;3.00;99.90;;;;;;4962434;28;20714;-88
2022/04/10 00:17:45;;;;;;;3.53;3.10;;;3.00;99.90;;;;;;4962143;28;20188;-88
2022/04/10 00:20:11;;;;;;;4.93;3.10;;;3.10;99.90;;;;;;4962338;28;20549;-88
2022/04/10 00:22:45;;;;;;;5.20;3.17;;;3.10;99.90;;;;;;4962145;28;20209;-87
2022/04/10 00:25:15;;;;;;;5.37;3.37;;;3.10;99.90;;;;;;4962305;28;20183;-88
2022/04/10 00:27:48;;;;;;;7.03;3.13;;;3.20;99.90;;;;;;4962289;28;20187;-88
2022/04/10 00:30:17;;;;;;;4.17;2.80;;;3.20;99.90;;;;;;4962042;28;20222;-88
2022/04/10 00:32:43;;;;;;;3.60;2.80;;;3.20;99.90;;;;;;4978549;28;20682;-88
2022/04/10 00:35:11;;;;;;;4.20;3.07;;;3.20;99.90;;;;;;4978358;28;20270;-88
2022/04/10 00:37:38;;;;;;;5.30;3.60;;;3.30;99.90;;;;;;4961947;28;20237;-88
2022/04/10 00:40:06;;;;;;;5.77;3.10;;;3.20;99.90;;;;;;4977714;28;20290;-88
2022/04/10 00:42:37;;;;;;;3.60;2.93;;;3.30;99.90;;;;;;4961781;28;20207;-88
2022/04/10 00:45:06;;;;;;;6.50;3.40;;;3.30;99.90;;;;;;4978060;28;20214;-88
2022/04/10 00:47:32;;;;;;;4.33;3.13;;;3.30;99.90;;;;;;4977955;28;20186;-88
2022/04/10 00:50:01;;;;;;;3.57;2.80;;;3.30;99.90;;;;;;4961904;28;20179;-88
2022/04/10 00:52:27;;;;;;;4.13;2.80;;;3.30;99.90;;;;;;4994284;28;20183;-88
2022/04/10 00:54:54;;;;;;;4.80;2.87;;;3.40;99.90;;;;;;4997155;28;20636;-88
2022/04/10 00:57:20;;;;;;;4.00;2.90;;;3.40;99.90;;;;;;4981002;28;20175;-88
2022/04/10 00:59:46;;;;;;;4.10;3.13;;;3.40;99.90;;;;;;4977339;28;20253;-88
2022/04/10 01:02:12;;;;;;;4.50;3.40;;;3.40;99.90;;;;;;4977887;28;20245;-88
2022/04/10 01:04:39;;;;;;;4.73;3.03;;;3.40;99.90;;;;;;4977748;28;20179;-88
2022/04/10 01:07:06;;;;;;;4.67;2.90;;;3.40;99.90;;;;;;4961468;28;20233;-88
2022/04/10 01:09:36;;;;;;;5.50;3.00;;;3.40;99.90;;;;;;4961651;28;20222;-88
2022/04/10 01:12:03;;;;;;;2.87;2.63;;;3.40;99.90;;;;;;4961450;28;20287;-88
2022/04/10 01:14:30;;;;;;;3.53;3.17;;;3.40;99.90;;;;;;4965319;28;20199;-88
2022/04/10 01:16:57;;;;;;;5.07;3.07;;;3.30;99.90;;;;;;4980787;28;20183;-88
2022/04/10 01:19:24;;;;;;;4.07;3.37;;;3.40;99.90;;;;;;4990764;28;20206;-88
2022/04/10 01:22:33;;;;;;;3.57;3.20;;;3.40;99.90;;;;;;4976469;28;20179;-88
2022/04/10 01:25:04;;;;;;;4.17;3.13;;;3.50;99.90;;;;;;4993432;28;20176;-88
2022/04/10 01:27:37;;;;;;;5.87;3.63;;;3.50;99.90;;;;;;4977581;28;20164;-88
2022/04/10 01:30:05;;;;;;;5.77;4.03;;;3.50;99.90;;;;;;4976745;28;20183;-88
2022/04/10 01:32:31;;;;;;;3.93;3.13;;;3.40;99.90;;;;;;4977539;28;20265;-88
2022/04/10 01:35:06;;;;;;;4.87;3.40;;;3.40;99.90;;;;;;4980042;28;20541;-88
2022/04/10 01:37:35;;;;;;;3.20;2.90;;;3.40;99.90;;;;;;4979542;28;20209;-88
2022/04/10 01:40:02;;;;;;;3.20;2.80;;;3.40;99.90;;;;;;4980356;28;20273;-88
2022/04/10 01:42:28;;;;;;;5.07;3.30;;;3.40;99.90;;;;;;4979886;28;20671;-88
2022/04/10 01:44:55;;;;;;;5.80;3.40;;;3.40;99.90;;;;;;4980282;28;20179;-88
2022/04/10 01:47:21;;;;;;;5.73;3.43;;;3.40;99.90;;;;;;4980049;28;20175;-88
2022/04/10 01:49:48;;;;;;;4.13;2.93;;;3.40;99.90;;;;;;4968863;28;20189;-88
2022/04/10 01:52:14;;;;;;;5.47;3.30;;;3.40;99.90;;;;;;4960796;28;20274;-88
2022/04/10 01:54:40;;;;;;;5.40;3.83;;;3.40;99.90;;;;;;4973995;28;20188;-88
2022/04/10 01:57:08;;;;;;;4.97;3.57;;;3.40;99.90;;;;;;4974510;28;20195;-88
2022/04/10 02:02:49;;;;;;;4.17;3.50;;;3.40;99.90;;;;;;4983498;28;20223;-88
2022/04/10 02:05:15;;;;;;;4.60;3.37;;;3.30;99.90;;;;;;4961568;28;20238;-88
2022/04/10 02:07:40;;;;;;;5.40;3.57;;;3.30;99.90;;;;;;4960909;28;20180;-88
2022/04/10 02:10:08;;;;;;;4.13;3.20;;;3.30;99.90;;;;;;4960192;28;20187;-88
2022/04/10 02:12:35;;;;;;;4.90;3.70;;;3.20;99.90;;;;;;4960421;28;20210;-88
2022/04/10 02:15:01;;;;;;;3.50;3.20;;;3.20;99.90;;;;;;4989432;28;20182;-89
2022/04/10 02:17:27;;;;;;;5.33;3.40;;;3.20;99.90;;;;;;4978957;28;20201;-88
2022/04/10 02:19:53;;;;;;;4.63;3.47;;;3.20;99.90;;;;;;4974797;28;20210;-88
2022/04/10 02:22:19;;;;;;;5.73;3.40;;;3.10;99.90;;;;;;4977985;28;20178;-88
2022/04/10 02:24:45;;;;;;;6.13;3.90;;;3.20;99.90;;;;;;4977781;28;20519;-88
2022/04/10 02:27:12;;;;;;;6.70;4.00;;;3.10;99.90;;;;;;4973598;28;20229;-88
2022/04/10 02:29:38;;;;;;;5.00;3.40;;;3.10;99.90;;;;;;4985725;28;20606;-88
2022/04/10 02:32:04;;;;;;;5.40;3.33;;;3.00;99.90;;;;;;4975226;28;20187;-88
2022/04/10 02:34:30;;;;;;;4.23;3.40;;;3.00;99.90;;;;;;4986278;28;20198;-88
2022/04/10 02:36:56;;;;;;;4.30;3.30;;;3.00;99.90;;;;;;4999651;28;20321;-88
2022/04/10 02:39:22;;;;;;;4.63;3.10;;;3.00;99.90;;;;;;4983365;28;20260;-87
2022/04/10 02:41:48;;;;;;;4.90;3.17;;;2.90;99.90;;;;;;4965954;28;20187;-87
2022/04/10 02:44:14;;;;;;;3.93;3.30;;;2.80;99.90;;;;;;4964042;28;20199;-87
2022/04/10 02:46:40;;;;;;;5.13;3.13;;;2.60;99.90;;;;;;4974788;28;20267;-88
2022/04/10 02:49:06;;;;;;;4.77;2.90;;;2.50;99.90;;;;;;4963851;28;20206;-88
2022/04/10 02:51:32;;;;;;;5.10;2.90;;;2.50;99.90;;;;;;4983055;28;20282;-88
2022/04/10 02:53:58;;;;;;;5.60;3.20;;;2.50;99.90;;;;;;4983206;28;20272;-88
2022/04/10 02:56:24;;;;;;;4.67;3.27;;;2.50;99.90;;;;;;4982565;28;20192;-87
2022/04/10 02:58:50;;;;;;;5.53;3.37;;;2.40;99.90;;;;;;4979954;28;20616;-88
2022/04/10 03:01:17;;;;;;;4.60;3.37;;;2.40;99.90;;;;;;4988057;28;20181;-88
2022/04/10 03:03:43;;;;;;;4.30;3.53;;;2.30;99.90;;;;;;4981472;28;20207;-88
2022/04/10 03:06:09;;;;;;;3.60;3.30;;;2.30;99.90;;;;;;4991304;28;20176;-87
2022/04/10 03:08:37;;;;;;;5.70;3.33;;;2.30;99.90;;;;;;4964153;28;20186;-88
2022/04/10 03:11:03;;;;;;;3.97;3.33;;;2.30;99.90;;;;;;4973549;28;20216;-87
2022/04/10 03:13:30;;;;;;;3.43;3.13;;;2.30;99.90;;;;;;4982909;28;20577;-88
2022/04/10 03:15:56;;;;;;;5.60;3.60;;;2.20;99.90;;;;;;4979299;28;20187;-88
2022/04/10 03:18:27;;;;;;;5.73;3.43;;;2.20;99.90;;;;;;4968331;28;20233;-88
2022/04/10 03:20:53;;;;;;;4.63;3.40;;;2.10;99.90;;;;;;4997827;28;20205;-88
2022/04/10 03:23:19;;;;;;;6.47;3.43;;;2.10;99.90;;;;;;4982795;28;20199;-87
2022/04/10 03:25:45;;;;;;;6.07;3.67;;;2.10;99.90;;;;;;4982263;28;20211;-88
2022/04/10 03:28:36;;;;;;;6.37;3.93;;;2.00;99.90;;;;;;4979547;28;20282;-88
2022/04/10 03:31:02;;;;;;;8.93;3.93;;;2.10;99.90;;;;;;4982816;28;20541;-87
2022/04/10 03:33:35;;;;;;;7.10;3.60;;;2.10;99.90;;;;;;4983167;28;20202;-88
2022/04/10 03:36:01;;;;;;;4.20;3.80;;;2.10;99.90;;;;;;4976907;28;20249;-87
2022/04/10 03:38:28;;;;;;;4.50;3.30;;;2.10;99.90;;;;;;4963426;28;20273;-87
2022/04/10 03:40:54;;;;;;;4.23;3.57;;;2.20;99.90;;;;;;4978601;28;20205;-88
2022/04/10 03:43:20;;;;;;;3.73;3.30;;;2.10;99.90;;;;;;4962420;28;20195;-88
2022/04/10 03:45:48;;;;;;;4.60;3.50;;;2.10;99.90;;;;;;4979096;28;20698;-87
2022/04/10 03:48:14;;;;;;;3.73;3.30;;;2.10;99.90;;;;;;4982564;28;20591;-88
2022/04/10 03:50:41;;;;;;;3.70;3.40;;;2.00;99.90;;;;;;4975718;28;20177;-87
2022/04/10 03:53:08;;;;;;;5.00;3.80;;;2.00;99.90;;;;;;4982076;28;20200;-87
2022/04/10 03:55:37;;;;;;;6.83;4.13;;;1.90;99.90;;;;;;4981813;28;20709;-87
2022/04/10 03:58:05;;;;;;;5.27;3.60;;;1.80;99.90;;;;;;4975179;28;20536;-87
2022/04/10 04:00:48;;;;;;;6.43;4.27;;;1.80;99.90;;;;;;4963917;28;20217;-87
2022/04/10 04:03:15;;;;;;;4.00;3.47;;;1.80;99.90;;;;;;4962873;28;20198;-87
2022/04/10 04:05:41;;;;;;;4.50;3.63;;;1.80;99.90;;;;;;4967922;28;20175;-88
2022/04/10 04:08:11;;;;;;;5.33;3.40;;;1.80;99.90;;;;;;4980545;28;20178;-87
2022/04/10 04:10:37;;;;;;;8.07;3.80;;;1.80;99.90;;;;;;4982018;28;20204;-87
2022/04/10 04:13:04;;;;;;;4.03;3.53;;;1.70;99.90;;;;;;4981256;28;20205;-87
2022/04/10 04:15:31;;;;;;;5.57;4.17;;;1.70;99.90;;;;;;4981870;28;20184;-87
2022/04/10 04:17:58;;;;;;;6.20;3.87;;;1.70;99.90;;;;;;4982349;28;20189;-87
2022/04/10 04:20:24;;;;;;;5.13;3.60;;;1.70;99.90;;;;;;4963556;28;20230;-87
2022/04/10 04:22:50;;;;;;;6.30;3.93;;;1.70;99.90;;;;;;4978661;28;20225;-87
2022/04/10 04:25:17;;;;;;;4.53;3.80;;;1.70;99.90;;;;;;4977642;28;20232;-87
2022/04/10 04:27:45;;;;;;;5.70;3.90;;;1.60;99.90;;;;;;4978622;28;20181;-87
2022/04/10 04:30:12;;;;;;;5.00;3.73;;;1.60;99.90;;;;;;4965557;28;20191;-87
2022/04/10 04:33:02;;;;;;;6.30;3.60;;;1.50;99.90;;;;;;4997557;28;20193;-87
2022/04/10 04:35:30;;;;;;;5.27;3.33;;;1.50;99.90;;;;;;4997028;28;20203;-88
2022/04/10 04:37:57;;;;;;;7.87;3.60;;;1.50;99.90;;;;;;4979693;28;20180;-87
2022/04/10 04:40:24;;;;;;;5.30;3.60;;;1.50;99.90;;;;;;4976991;28;20237;-87
2022/04/10 04:42:52;;;;;;;4.30;3.60;;;1.40;99.90;;;;;;4962233;28;20567;-87
2022/04/10 04:49:08;;;;;;;4.90;3.67;;;1.60;99.90;;;;;;4995220;28;20441;-87
2022/04/10 04:51:36;;;;;;;6.27;3.90;;;1.60;99.90;;;;;;4978062;28;20217;-88
2022/04/10 04:54:04;;;;;;;5.73;3.80;;;1.70;99.90;;;;;;4977926;28;20574;-87
2022/04/10 04:56:31;;;;;;;6.87;4.07;;;1.70;99.90;;;;;;4977164;28;20307;-87
2022/04/10 04:58:57;;;;;;;6.17;3.47;;;1.70;99.90;;;;;;4977656;28;20216;-88
2022/04/10 05:01:31;;;;;;;6.23;3.50;;;1.70;99.90;;;;;;4961394;28;20217;-87
2022/04/10 05:03:57;;;;;;;5.97;3.43;;;1.70;99.90;;;;;;4961565;28;20204;-87
2022/04/10 05:06:25;;;;;;;6.70;4.03;;;1.50;99.90;;;;;;4977532;28;20177;-87
2022/04/10 05:08:52;;;;;;;6.03;4.17;;;1.40;99.90;;;;;;4961400;28;20177;-88
2022/04/10 05:11:18;;;;;;;6.17;3.87;;;1.40;99.90;;;;;;4977782;28;20190;-88
2022/04/10 05:13:46;;;;;;;6.47;4.17;;;1.50;99.90;;;;;;4977619;28;20198;-88
2022/04/10 05:16:12;;;;;;;8.23;3.83;;;1.60;99.90;;;;;;4960705;28;20315;-88
2022/04/10 05:18:43;;;;;;;5.47;3.47;;;1.70;99.90;;;;;;4978503;28;20681;-87
2022/04/10 05:21:17;;;;;;;4.43;3.87;;;1.80;99.90;;;;;;4980185;28;20214;-87
2022/04/10 05:23:44;;;;;;;4.70;3.70;;;1.90;99.90;;;;;;4980903;28;20192;-87
2022/04/10 05:26:16;;;;;;;10.63;6.17;;;2.00;99.90;;;;;;4982138;28;20173;-87
2022/04/10 05:28:45;;;;;;;8.70;7.00;;;2.10;99.90;;;;;;4977112;28;20275;-88
2022/04/10 05:31:11;;;;;;;17.50;12.83;;;2.20;99.90;;;;;;4977064;28;20328;-87
2022/04/10 05:33:41;;;;;;;12.03;7.90;;;2.20;99.90;;;;;;4963757;28;20216;-88
2022/04/10 05:36:08;;;;;;;8.23;4.70;;;2.30;99.90;;;;;;4980401;28;20659;-88
2022/04/10 05:38:39;;;;;;;8.30;4.90;;;2.30;99.90;;;;;;4982552;28;20197;-88
2022/04/10 05:41:05;;;;;;;5.80;4.50;;;2.40;99.90;;;;;;4980021;28;20205;-87
2022/04/10 05:43:35;;;;;;;6.90;4.17;;;2.40;99.90;;;;;;4976847;28;20196;-87
2022/04/10 05:46:03;;;;;;;4.27;3.77;;;2.40;99.90;;;;;;4976939;28;20231;-87
2022/04/10 05:48:31;;;;;;;7.03;4.70;;;2.50;99.90;;;;;;4977937;28;20197;-88
2022/04/10 05:50:58;;;;;;;6.43;4.40;;;2.50;99.90;;;;;;4976543;28;20234;-88
2022/04/10 05:53:25;;;;;;;10.17;7.27;;;2.50;99.90;;;;;;4975917;28;20202;-88
2022/04/10 05:55:51;;;;;;;51.10;26.40;;;2.60;99.90;;;;;;4978746;28;20178;-88
2022/04/10 05:58:22;;;;;;;30.90;16.73;;;2.60;99.90;;;;;;4965482;28;20187;-89
2022/04/10 06:04:36;;;;;;;6.47;4.50;;;2.60;99.90;;;;;;5013807;28;20238;-87
2022/04/10 06:07:02;;;;;;;6.77;4.80;;;2.70;99.90;;;;;;4980195;28;20237;-88
2022/04/10 06:09:34;;;;;;;6.43;4.93;;;2.70;99.90;;;;;;4976886;28;20192;-88
2022/04/10 06:12:00;;;;;;;36.00;22.23;;;2.80;99.90;;;;;;4977819;28;20187;-88
2022/04/10 06:14:30;;;;;;;51.60;22.63;;;2.80;99.90;;;;;;4970309;28;20314;-88
2022/04/10 06:16:58;;;;;;;39.07;19.63;;;2.80;99.90;;;;;;4975255;28;20194;-88
2022/04/10 06:19:27;;;;;;;16.63;8.87;;;2.90;99.90;;;;;;4974562;28;20214;-88
2022/04/10 06:21:55;;;;;;;12.10;9.47;;;3.00;99.90;;;;;;4960339;28;20168;-88
2022/04/10 06:24:21;;;;;;;9.87;5.77;;;3.00;99.90;;;;;;4976054;28;20203;-88
2022/04/10 06:26:51;;;;;;;15.77;11.93;;;3.10;99.90;;;;;;4965359;28;20179;-88
2022/04/10 06:29:19;;;;;;;14.60;9.70;;;3.10;99.90;;;;;;4976075;28;20187;-88
2022/04/10 06:31:50;;;;;;;6.37;5.00;;;3.20;99.90;;;;;;4977411;28;20178;-88
2022/04/10 06:34:18;;;;;;;5.90;4.57;;;3.20;99.90;;;;;;4976408;28;20222;-88
2022/04/10 06:36:44;;;;;;;6.00;4.60;;;3.30;99.90;;;;;;4960031;28;20187;-88
2022/04/10 06:39:11;;;;;;;7.27;4.87;;;3.40;99.90;;;;;;4976021;28;20606;-88
2022/04/10 06:42:18;;;;;;;6.77;4.93;;;3.40;99.90;;;;;;4975977;28;20210;-88
2022/04/10 06:44:58;;;;;;;5.30;3.97;;;3.50;99.90;;;;;;4990484;28;20183;-88
2022/04/10 06:47:59;;;;;;;6.27;4.30;;;3.50;99.90;;;;;;4974769;28;20175;-88
2022/04/10 06:50:35;;;;;;;6.53;4.63;;;3.60;99.90;;;;;;4989890;28;20190;-88
2022/04/10 06:53:09;;;;;;;5.83;5.23;;;3.60;99.90;;;;;;4995856;28;20285;-88
2022/04/10 06:55:55;;;;;;;6.27;5.13;;;3.70;99.90;;;;;;4979005;28;20187;-88
2022/04/10 06:58:22;;;;;;;9.20;6.33;;;3.80;99.90;;;;;;4961949;28;20180;-88
2022/04/10 07:00:50;;;;;;;11.77;6.30;;;3.80;99.90;;;;;;4976281;28;20210;-90
2022/04/10 07:03:17;;;;;;;8.43;5.60;;;3.90;99.90;;;;;;4979009;28;20195;-88
2022/04/10 07:05:44;;;;;;;10.87;6.50;;;3.90;99.90;;;;;;4975932;28;20188;-88
2022/04/10 07:08:17;;;;;;;13.73;6.53;;;4.00;99.90;;;;;;4975840;28;20313;-88
2022/04/10 07:10:44;;;;;;;6.57;4.90;;;4.10;99.90;;;;;;4972376;28;20266;-88
2022/04/10 07:13:10;;;;;;;7.67;4.97;;;4.20;99.90;;;;;;4979481;28;20262;-88
2022/04/10 07:15:37;;;;;;;7.53;5.10;;;4.40;99.90;;;;;;4978109;28;20192;-88
2022/04/10 07:18:05;;;;;;;7.67;4.53;;;4.50;99.90;;;;;;4975351;28;20260;-88
2022/04/10 07:20:32;;;;;;;6.50;4.60;;;4.50;99.90;;;;;;4962745;28;20208;-88
2022/04/10 07:25:47;;;;;;;5.03;4.30;;;4.70;99.90;;;;;;4983604;28;20179;-88
2022/04/10 07:28:14;;;;;;;7.40;4.90;;;4.70;99.90;;;;;;4966247;28;20221;-88
2022/04/10 07:30:47;;;;;;;6.77;4.47;;;4.80;99.90;;;;;;4981183;28;20179;-89
2022/04/10 07:33:16;;;;;;;6.00;4.30;;;4.80;99.90;;;;;;4983107;28;20219;-88
2022/04/10 07:35:48;;;;;;;6.77;4.50;;;4.90;99.90;;;;;;4987100;28;20175;-88
2022/04/10 07:38:18;;;;;;;7.30;4.60;;;5.00;99.90;;;;;;4963948;28;20267;-89
2022/04/10 07:40:45;;;;;;;5.03;4.13;;;5.10;99.90;;;;;;4974491;28;20203;-88
2022/04/10 07:43:15;;;;;;;8.20;5.40;;;5.10;99.90;;;;;;4980032;28;20278;-90
2022/04/10 07:48:42;;;;;;;6.30;4.63;;;5.30;99.90;;;;;;4996473;28;20195;-88
2022/04/10 07:51:10;;;;;;;6.00;4.23;;;5.50;99.90;;;;;;4978660;28;20191;-88
2022/04/10 07:53:48;;;;;;;6.40;4.37;;;5.60;99.90;;;;;;4967425;28;20199;-88
2022/04/10 07:56:15;;;;;;;5.60;4.27;;;5.90;99.90;;;;;;4962853;28;20180;-88
2022/04/10 07:58:42;;;;;;;5.40;4.60;;;6.10;99.90;;;;;;4980931;28;20205;-88
2022/04/10 08:01:39;;;;;;;7.67;5.63;;;6.30;99.90;;;;;;4972633;28;20196;-87
2022/04/10 08:04:27;;;;;;;6.20;4.13;;;6.50;99.90;;;;;;4990602;28;20219;-87
2022/04/10 08:07:21;;;;;;;5.57;4.07;;;6.50;99.90;;;;;;4993593;28;20188;-87
2022/04/10 08:09:53;;;;;;;5.43;4.37;;;6.50;99.90;;;;;;4965915;28;20180;-87
2022/04/10 08:12:21;;;;;;;7.30;4.23;;;6.50;99.90;;;;;;4973631;28;20193;-86
2022/04/10 08:15:09;;;;;;;6.63;4.50;;;6.60;99.90;;;;;;4982998;28;20277;-86
2022/04/10 08:17:38;;;;;;;5.97;4.40;;;6.90;99.90;;;;;;4986490;28;20236;-86
2022/04/10 08:20:12;;;;;;;5.33;4.70;;;7.10;99.90;;;;;;4986064;28;20248;-87
2022/04/10 08:23:29;;;;;;;7.83;4.73;;;7.30;99.90;;;;;;4977293;28;20209;-86
2022/04/10 08:26:14;;;;;;;6.30;3.97;;;7.50;99.90;;;;;;4997352;28;20178;-86
2022/04/10 08:28:40;;;;;;;4.90;3.90;;;7.70;99.90;;;;;;4987904;28;20198;-86
2022/04/10 08:31:06;;;;;;;6.73;3.97;;;7.90;99.90;;;;;;4973891;28;20190;-86
2022/04/10 08:33:31;;;;;;;5.40;4.00;;;8.00;99.90;;;;;;4973746;28;20209;-86
2022/04/10 08:35:58;;;;;;;3.73;3.20;;;8.20;99.90;;;;;;4961611;28;20183;-87
2022/04/10 08:38:26;;;;;;;4.80;3.50;;;8.40;99.90;;;;;;4994066;28;20167;-87
2022/04/10 08:41:01;;;;;;;6.17;4.00;;;8.40;99.90;;;;;;4992978;28;20208;-87
2022/04/10 08:43:28;;;;;;;4.77;3.33;;;8.50;99.90;;;;;;4995033;28;20201;-87
2022/04/10 08:45:58;;;;;;;5.50;3.50;;;8.40;99.90;;;;;;4988316;28;20236;-77
2022/04/10 08:48:26;;;;;;;5.03;3.73;;;8.40;99.90;;;;;;4987931;28;20253;-78
2022/04/10 08:50:57;;;;;;;3.83;3.40;;;8.60;99.90;;;;;;4979422;28;20186;-74
2022/04/10 08:53:26;;;;;;;4.77;3.43;;;8.60;99.90;;;;;;4992068;28;20220;-73
2022/04/10 08:55:54;;;;;;;5.67;3.33;;;8.90;99.90;;;;;;4977764;28;20180;-87
2022/04/10 08:58:21;;;;;;;5.27;3.30;;;9.00;99.90;;;;;;4981137;28;20233;-87
2022/04/10 09:00:47;;;;;;;5.10;3.20;;;9.10;99.90;;;;;;4979508;28;20264;-87
2022/04/10 09:03:13;;;;;;;5.67;3.33;;;9.00;99.90;;;;;;4976063;28;20578;-87
2022/04/10 09:06:03;;;;;;;5.33;2.90;;;9.10;99.90;;;;;;4983644;28;20176;-87
2022/04/10 09:08:29;;;;;;;3.53;2.70;;;9.20;99.90;;;;;;4983766;28;20176;-87
2022/04/10 09:10:59;;;;;;;3.83;2.70;;;9.20;99.90;;;;;;4966290;28;20202;-87
2022/04/10 09:13:40;;;;;;;4.97;3.13;;;9.10;99.90;;;;;;4980249;28;20207;-87
2022/04/10 09:16:14;;;;;;;6.03;2.80;;;9.20;99.90;;;;;;4976396;28;20175;-88
2022/04/10 09:19:10;;;;;;;4.13;2.40;;;9.30;99.90;;;;;;4987441;28;20183;-87
2022/04/10 09:21:40;;;;;;;2.87;2.20;;;9.70;99.90;;;;;;4960830;28;20195;-87
2022/04/10 09:24:15;;;;;;;3.47;2.60;;;10.10;99.90;;;;;;4962220;28;20244;-87
2022/04/10 09:26:54;;;;;;;5.50;2.90;;;10.20;99.90;;;;;;4977926;28;20175;-88
2022/04/10 09:29:22;;;;;;;4.83;2.33;;;10.30;99.90;;;;;;4977582;28;20203;-87
2022/04/10 09:31:52;;;;;;;3.30;2.53;;;10.20;99.90;;;;;;4982919;28;20187;-87
2022/04/10 09:34:22;;;;;;;4.33;3.20;;;9.80;99.90;;;;;;4976304;28;20199;-88
2022/04/10 09:36:59;;;;;;;5.00;3.23;;;9.50;99.90;;;;;;4961395;28;20211;-87
2022/04/10 09:39:33;;;;;;;5.80;2.93;;;9.40;99.90;;;;;;4974753;28;20180;-87
2022/04/10 09:42:10;;;;;;;3.47;2.30;;;9.40;99.90;;;;;;4960476;28;20184;-86
2022/04/10 09:44:39;;;;;;;6.17;3.23;;;9.20;99.90;;;;;;4971146;28;20178;-87
2022/04/10 09:47:11;;;;;;;4.50;2.13;;;8.90;99.90;;;;;;4995476;28;20171;-87
2022/04/10 09:49:41;;;;;;;5.73;2.20;;;8.60;99.90;;;;;;4994114;28;20180;-87
2022/04/10 09:52:12;;;;;;;3.13;2.23;;;8.10;99.90;;;;;;4979018;28;20281;-87
2022/04/10 09:54:42;;;;;;;2.23;2.00;;;7.70;99.90;;;;;;4959918;28;20222;-87
2022/04/10 09:57:13;;;;;;;3.07;1.57;;;7.60;99.90;;;;;;4971088;28;20298;-87
2022/04/10 09:59:48;;;;;;;1.90;1.37;;;7.60;99.90;;;;;;4971041;28;20269;-88
2022/04/10 10:02:16;;;;;;;2.73;1.77;;;7.60;99.90;;;;;;4960219;28;20544;-89
2022/04/10 10:04:44;;;;;;;2.00;1.80;;;7.70;99.90;;;;;;4962117;28;20226;-85
2022/04/10 10:07:22;;;;;;;4.07;2.00;;;7.90;99.90;;;;;;4959565;28;20190;-86
2022/04/10 10:09:49;;;;;;;3.30;1.53;;;7.90;99.90;;;;;;4971409;28;20225;-86
2022/04/10 10:12:16;;;;;;;3.10;1.80;;;8.00;99.90;;;;;;4961548;28;20285;-86
2022/04/10 10:14:43;;;;;;;3.50;2.33;;;8.20;99.90;;;;;;4979155;28;20230;-86
2022/04/10 10:17:10;;;;;;;5.20;2.00;;;8.50;99.90;;;;;;4967846;28;20415;-86
2022/04/10 10:19:38;;;;;;;3.90;2.10;;;8.70;99.90;;;;;;4959432;28;20199;-86
2022/04/10 10:22:06;;;;;;;3.33;2.67;;;8.80;99.90;;;;;;4970478;28;20195;-85
2022/04/10 10:24:46;;;;;;;7.53;3.07;;;8.70;99.90;;;;;;4975620;28;20206;-85
2022/04/10 10:27:49;;;;;;;6.00;4.00;;;8.40;99.90;;;;;;5048993;28;20595;-34
2022/04/10 10:30:38;;;;;;;7.13;3.83;;;7.90;99.90;;;;;;5046254;28;20247;-34
2022/04/10 10:33:20;;;;;;;5.70;3.57;;;7.20;99.90;;;;;;5054917;28;20633;-34
2022/04/10 10:35:58;;;;;;;4.43;3.20;;;6.80;99.90;;;;;;5046519;28;20593;-34
2022/04/10 10:38:33;;;;;;;4.10;3.37;;;6.70;99.90;;;;;;5092855;22;20223;-30
2022/04/10 10:41:17;;;;;;;4.77;3.00;;;6.50;99.90;;;;;;5057783;28;20168;-30
2022/04/10 10:43:48;;;;;;;4.83;2.70;;;6.50;99.90;;;;;;5076787;28;20191;-29
2022/04/10 10:46:34;;;;;;;4.53;2.53;;;6.50;99.90;;;;;;5048329;28;20264;-29
2022/04/10 10:49:19;;;;;;;6.00;4.07;;;6.50;99.90;;;;;;5065642;28;20196;-30
2022/04/10 10:51:47;;;;;;;4.23;3.10;;;6.80;99.90;;;;;;5049659;28;20239;-30
2022/04/10 10:54:21;;;;;;;4.47;3.27;;;7.10;99.90;;;;;;5061588;28;20195;-30
2022/04/10 10:56:50;;;;;;;3.73;2.93;;;7.20;99.90;;;;;;5033746;28;20633;-30
2022/04/10 10:59:27;;;;;;;3.47;3.03;;;7.60;99.90;;;;;;5065424;28;20211;-30
2022/04/10 11:02:11;;;;;;;3.10;2.80;;;8.00;99.90;;;;;;5066787;28;20217;-30
2022/04/10 11:04:51;;;;;;;3.50;2.70;;;8.20;99.90;;;;;;5058581;28;20630;-30
2022/04/10 11:07:20;;;;;;;3.63;2.60;;;8.80;99.90;;;;;;5081483;28;20201;-30
2022/04/10 11:10:00;;;;;;;3.13;2.80;;;9.20;99.90;;;;;;5065538;28;20193;-31
2022/04/10 11:13:00;;;;;;;3.33;2.73;;;9.60;99.90;;;;;;5056924;28;20208;-31
2022/04/10 11:15:31;;;;;;;4.97;3.20;;;9.90;99.90;;;;;;5032804;28;20284;-31
2022/04/10 11:18:22;;;;;;;4.07;2.97;;;9.80;99.90;;;;;;5061246;28;20208;-31
2022/04/10 11:20:56;;;;;;;4.27;3.10;;;10.00;99.90;;;;;;5047321;28;20185;-30
2022/04/10 11:23:27;;;;;;;3.77;3.03;;;10.20;99.90;;;;;;5061938;28;20193;-30
2022/04/10 11:25:53;;;;;;;4.03;3.10;;;10.40;99.90;;;;;;5062778;28;20289;-31
2022/04/10 11:28:24;;;;;;;3.53;3.00;;;10.40;99.90;;;;;;5045869;28;20224;-30
2022/04/10 11:30:50;;;;;;;3.30;3.00;;;10.40;99.90;;;;;;5064089;28;20182;-30
2022/04/10 11:33:17;;;;;;;5.87;3.60;;;9.90;99.90;;;;;;5065036;28;20181;-30
2022/04/10 11:35:54;;;;;;;5.20;3.10;;;9.70;99.90;;;;;;5052718;28;20185;-29
2022/04/10 11:38:22;;;;;;;7.47;3.27;;;9.70;99.90;;;;;;5044147;28;20251;-31
2022/04/10 11:40:51;;;;;;;3.83;3.20;;;9.50;99.90;;;;;;5050617;28;20178;-30
2022/04/10 11:43:19;;;;;;;4.97;3.60;;;9.50;99.90;;;;;;5042803;28;20199;-30
2022/04/10 11:45:56;;;;;;;5.90;3.60;;;9.50;99.90;;;;;;5069210;28;20239;-31
2022/04/10 11:48:25;;;;;;;5.03;3.60;;;9.20;99.90;;;;;;5038976;28;20206;-30
2022/04/10 11:50:51;;;;;;;5.33;3.80;;;9.00;99.90;;;;;;5047836;28;20170;-31
2022/04/10 11:53:18;;;;;;;4.27;3.20;;;9.30;99.90;;;;;;5057157;28;20236;-30
2022/04/10 11:55:47;;;;;;;6.57;3.30;;;9.80;99.90;;;;;;5051048;28;20262;-31
2022/04/10 11:58:19;;;;;;;4.37;3.00;;;10.30;99.90;;;;;;5043735;28;20213;-30
2022/04/10 12:00:54;;;;;;;6.17;3.30;;;10.70;99.90;;;;;;5051540;28;20202;-31
2022/04/10 12:03:22;;;;;;;5.03;3.10;;;10.60;99.90;;;;;;5051789;28;20180;-30
2022/04/10 12:05:49;;;;;;;6.30;3.50;;;10.30;99.90;;;;;;5035209;28;20194;-30
2022/04/10 12:08:15;;;;;;;4.37;3.00;;;10.10;99.90;;;;;;5044372;28;20293;-30
2022/04/10 12:10:50;;;;;;;3.13;2.77;;;10.10;99.90;;;;;;5047454;28;20252;-30
2022/04/10 12:13:17;;;;;;;4.83;3.00;;;10.00;99.90;;;;;;5049700;28;20205;-31
2022/04/10 12:15:42;;;;;;;4.30;3.40;;;10.00;99.90;;;;;;5050973;28;20760;-30
2022/04/10 12:18:13;;;;;;;4.27;2.80;;;9.90;99.90;;;;;;5035866;28;20214;-31
2022/04/10 12:20:44;;;;;;;3.70;2.70;;;9.70;99.90;;;;;;5051589;28;20185;-30
2022/04/10 12:23:21;;;;;;;2.67;2.40;;;9.60;99.90;;;;;;5049968;28;20206;-30
2022/04/10 12:25:53;;;;;;;3.47;2.80;;;9.50;99.90;;;;;;5056630;28;20732;-30
2022/04/10 12:28:19;;;;;;;5.00;3.50;;;9.70;99.90;;;;;;5052375;28;20202;-31
2022/04/10 12:30:46;;;;;;;5.53;2.93;;;10.10;99.90;;;;;;5050582;28;20181;-31
2022/04/10 12:33:13;;;;;;;4.87;2.77;;;10.50;99.90;;;;;;5057825;28;20200;-30
2022/04/10 12:35:41;;;;;;;3.87;2.63;;;10.90;99.90;;;;;;5054227;28;20178;-30
2022/04/10 12:38:08;;;;;;;3.77;2.37;;;11.10;99.90;;;;;;5051925;28;20266;-31
2022/04/10 12:40:37;;;;;;;3.17;2.20;;;10.90;99.90;;;;;;5058471;28;20180;-30
2022/04/10 12:43:09;;;;;;;4.17;2.40;;;10.70;99.90;;;;;;5040162;28;20182;-30
2022/04/10 12:45:38;;;;;;;4.00;2.23;;;10.60;99.90;;;;;;5051074;28;20267;-30
2022/04/10 12:48:26;;;;;;;3.70;2.40;;;10.40;99.90;;;;;;5057099;28;20244;-31
2022/04/10 12:51:08;;;;;;;6.33;2.80;;;10.50;99.90;;;;;;5048918;28;20202;-31
2022/04/10 12:53:35;;;;;;;3.60;2.40;;;10.40;99.90;;;;;;5045151;28;20178;-31
2022/04/10 12:56:01;;;;;;;3.40;2.57;;;10.20;99.90;;;;;;5049626;28;20209;-30
2022/04/10 12:58:29;;;;;;;3.73;2.50;;;10.10;99.90;;;;;;5051535;28;20202;-31
2022/04/10 13:00:56;;;;;;;4.50;3.07;;;10.20;99.90;;;;;;5059279;28;20182;-30
2022/04/10 13:03:24;;;;;;;3.37;2.20;;;10.60;99.90;;;;;;5060271;28;20174;-31
2022/04/10 13:06:02;;;;;;;2.50;2.27;;;11.00;99.90;;;;;;5039807;28;20199;-31
2022/04/10 13:08:33;;;;;;;5.10;2.53;;;11.50;99.90;;;;;;5038984;28;20195;-31
2022/04/10 13:10:59;;;;;;;7.40;4.90;;;11.90;99.90;;;;;;5035597;28;20207;-31
2022/04/10 13:13:26;;;;;;;2.17;1.90;;;12.00;99.90;;;;;;5022918;28;20198;-31
2022/04/10 13:15:53;;;;;;;2.93;2.00;;;12.40;99.90;;;;;;5044499;28;20185;-32
2022/04/10 13:18:28;;;;;;;3.37;2.73;;;12.70;99.90;;;;;;5043341;28;20203;-31
2022/04/10 13:20:55;;;;;;;3.40;2.20;;;12.40;99.90;;;;;;5041679;28;20188;-31
2022/04/10 13:23:21;;;;;;;4.17;1.93;;;12.30;99.90;;;;;;5046395;28;20184;-31
2022/04/10 13:25:47;;;;;;;5.03;3.30;;;12.50;99.90;;;;;;5046386;28;20200;-31
2022/04/10 13:28:14;;;;;;;3.57;2.20;;;12.60;99.90;;;;;;5053211;28;20248;-32